Eads, Tennessee
Current Conditions -  °F | °C
As of 11:55 AM on Sunday 25 Jan 2015 (Local Time) from KNQA Reporting Station
Overcast Overcast  
Wind Chill: 41°   Ceiling: 3800
Heat Index: 45°   Visibility: 10mi
Dew Point: 43°   Wind: 7mph
Humidity: 93%   Direction: NA
Pressure: 29.7"   Gusts: NA
Location:  35.2°N, 89.65°W
Report Text: KNQA 251755Z VRB06KT 10SM BKN038 OVC046 07/06 A2970
Loading
Personal Weather Stations






























Interactive Weather Map New forecast layout! Learn more

10-Day Weather Forecast

Advertisements
Track Severe Weather on mobile